Decoded Metar for K2G4 (GARRETT CO in MD, USA) (IATA:2G4) | Meteo·Mobile Aviation Weather
aviador You're here:

K2G4 Decoded Metar

GARRETT CO in MD, USA
Report Time2020-02-18 22:15:00
UTC Time2020-02-18 22:25:37
Flight Rules lifr LIFR
Wind290° at 06 kt
Visibility6437 m
Phenomena:N/A
Clouds:Overcast 004 Hf
Ceiling400 ft
Temp06°C (ISA -3)
Dew Point06°C (100% RH)
AAT2.9°C
QNH1016 hPa
Density Alt2,589 ft
Elevation2,933 ft
Report Wrong Elevation
Raw Report
K2G4 182215Z AUTO 29006KT 4SM OVC004 06/06 A2999 RMK AO1=

Extra information for K2G4:More info

Metar Taf Metar & Taf Last 4 Metars F.Rules Stats Wind Profile Meteogram Temp Stats Airport Information Weather charts Add Link Nearby VenuesMetar ALERT Operation Metar Decoded Social comments

AIRNAV info for K2G4